Time;durP1;ratioP1;P1;durP2;ratioP2;P2;SDS_P1;SDS_P2;PMS_P1;PMS_P2;Temp;Humidity;BMP_temperature;BMP_pressure;BME280_temperature;BME280_humidity;BME280_pressure;Samples;Min_cycle;Max_cycle;Signal;HPM_P1;HPM_P2
2022/10/12 00:01:35;;;;;;;4.87;3.10;;;;;;;-143.84;71.85;45096.66;5113366;28;20442;-75
2022/10/12 00:04:03;;;;;;;7.80;3.77;;;;;;;-143.84;71.88;45106.19;5113031;28;21099;-76
2022/10/12 00:06:30;;;;;;;5.23;3.73;;;;;;;-143.84;71.82;45092.88;5112943;28;20478;-75
2022/10/12 00:08:58;;;;;;;5.53;3.00;;;;;;;-143.84;71.86;45102.38;5113178;28;20428;-75
2022/10/12 00:11:28;;;;;;;3.67;3.00;;;;;;;-143.84;71.94;45090.97;5112899;28;20492;-75
2022/10/12 00:13:56;;;;;;;8.40;3.20;;;;;;;-143.84;71.76;45123.34;5113459;28;20431;-75
2022/10/12 00:16:24;;;;;;;8.40;3.43;;;;;;;-143.84;71.91;45110.00;5113234;28;20435;-75
2022/10/12 00:18:52;;;;;;;4.50;2.87;;;;;;;-143.84;72.00;45110.00;5113041;28;20499;-75
2022/10/12 00:21:21;;;;;;;10.23;3.40;;;;;;;-143.84;71.91;45111.91;5112492;28;20438;-75
2022/10/12 00:23:49;;;;;;;6.57;2.83;;;;;;;-143.84;71.97;45085.25;5112641;28;20449;-75
2022/10/12 00:26:20;;;;;;;5.13;3.10;;;;;;;-143.84;71.91;45090.97;5112419;28;20482;-75
2022/10/12 00:28:48;;;;;;;3.93;2.80;;;;;;;-143.84;71.99;45102.38;5112772;28;20435;-75
2022/10/12 00:31:17;;;;;;;5.83;2.80;;;;;;;-143.84;71.83;45108.09;5112605;28;20442;-75
2022/10/12 00:33:45;;;;;;;7.83;3.00;;;;;;;-143.84;71.69;45098.56;5112620;28;20444;-75
2022/10/12 00:36:15;;;;;;;6.83;3.17;;;;;;;-143.84;71.99;45100.47;5112419;28;20440;-75
2022/10/12 00:38:42;;;;;;;7.73;2.70;;;;;;;-143.84;71.80;45102.38;5112651;28;20428;-75
2022/10/12 00:41:09;;;;;;;4.50;2.57;;;;;;;-143.84;71.79;45110.00;5112308;28;20499;-75
2022/10/12 00:43:40;;;;;;;7.53;3.57;;;;;;;-143.84;71.89;45113.81;5112578;28;20430;-75
2022/10/12 00:46:13;;;;;;;5.00;2.57;;;;;;;-143.84;71.56;45085.25;5112310;28;20595;-75
2022/10/12 00:48:42;;;;;;;4.87;3.30;;;;;;;-143.84;71.75;45111.91;5112187;28;20443;-75
2022/10/12 00:51:10;;;;;;;4.07;2.50;;;;;;;-143.84;71.51;45121.44;5112330;28;20458;-75
2022/10/12 00:53:43;;;;;;;5.00;2.60;;;;;;;-143.84;71.66;45096.66;5112143;28;20473;-76
2022/10/12 00:56:14;;;;;;;7.13;2.87;;;;;;;-143.84;71.55;45111.91;5111748;28;20443;-76
2022/10/12 00:58:43;;;;;;;3.80;2.50;;;;;;;-143.84;71.59;45102.38;5112026;28;20508;-76
2022/10/12 01:01:10;;;;;;;10.30;2.53;;;;;;;-143.84;71.84;45102.38;5112090;28;21303;-76
2022/10/12 01:03:38;;;;;;;4.27;2.87;;;;;;;-143.84;72.11;45100.47;5111919;28;20438;-76
2022/10/12 01:06:07;;;;;;;3.23;2.00;;;;;;;-143.84;71.95;45079.53;5112096;28;20541;-75
2022/10/12 01:08:34;;;;;;;4.50;2.73;;;;;;;-143.84;72.02;45121.44;5111769;28;20439;-76
2022/10/12 01:11:01;;;;;;;3.30;2.73;;;;;;;-143.84;71.73;45094.78;5111852;28;20989;-76
2022/10/12 01:13:29;;;;;;;10.53;2.87;;;;;;;-143.84;71.53;45125.22;5112147;28;20435;-76
2022/10/12 01:16:05;;;;;;;7.10;2.47;;;;;;;-143.84;71.84;45106.19;5111919;28;20492;-76
2022/10/12 01:18:40;;;;;;;3.53;2.23;;;;;;;-143.84;71.72;45094.78;5111755;28;20449;-76
2022/10/12 01:21:13;;;;;;;2.60;1.93;;;;;;;-143.84;71.77;45111.91;5111904;28;20443;-75
2022/10/12 01:24:05;;;;;;;3.30;2.60;;;;;;;-143.84;71.90;45123.34;5111345;28;20446;-76
2022/10/12 01:27:00;;;;;;;4.77;2.97;;;;;;;-143.84;72.11;45136.66;5111847;28;20475;-76
2022/10/12 01:30:11;;;;;;;4.10;2.30;;;;;;;-143.84;72.23;45085.25;5111541;28;20448;-75
2022/10/12 01:33:09;;;;;;;6.10;2.40;;;;;;;-143.84;72.40;45113.81;5111366;28;20438;-75
2022/10/12 01:35:42;;;;;;;2.93;2.60;;;;;;;-143.84;72.50;45098.56;5111142;28;20447;-76
2022/10/12 01:38:20;;;;;;;9.40;2.10;;;;;;;-143.84;72.59;45098.56;5111073;28;20500;-76
2022/10/12 01:40:56;;;;;;;2.30;2.10;;;;;;;-143.84;72.73;45110.00;5111400;28;20900;-76
2022/10/12 01:43:23;;;;;;;2.77;2.10;;;;;;;-143.84;72.84;45129.03;5111303;28;20531;-76
2022/10/12 01:45:50;;;;;;;2.67;2.47;;;;;;;-143.84;72.97;45106.19;5111067;28;20556;-76
2022/10/12 01:48:19;;;;;;;6.00;2.57;;;;;;;-143.84;72.98;45113.81;5111240;28;20917;-76
2022/10/12 01:50:50;;;;;;;4.67;2.70;;;;;;;-143.84;72.90;45090.97;5111094;28;20535;-76
2022/10/12 01:53:30;;;;;;;3.90;2.00;;;;;;;-143.84;72.93;45077.63;5110787;28;20523;-75
2022/10/12 01:56:07;;;;;;;3.90;2.00;;;;;;;-143.84;72.85;45079.53;5111422;28;20858;-75
2022/10/12 01:58:53;;;;;;;7.13;1.87;;;;;;;-143.84;72.87;45115.72;5111500;28;21124;-75
2022/10/12 02:01:24;;;;;;;2.00;1.80;;;;;;;-143.84;73.07;45108.09;5110807;28;20451;-75
2022/10/12 02:04:01;;;;;;;3.63;2.50;;;;;;;-143.84;73.13;45089.06;5110839;28;20478;-75
2022/10/12 02:06:34;;;;;;;4.90;2.30;;;;;;;-143.84;72.98;45119.53;5110557;28;20470;-75
2022/10/12 02:09:06;;;;;;;3.20;2.00;;;;;;;-143.84;73.13;45110.00;5109721;28;20769;-76
2022/10/12 02:11:37;;;;;;;2.23;2.03;;;;;;;-143.84;73.05;45098.56;5110890;28;20440;-76
2022/10/12 02:14:10;;;;;;;2.10;1.90;;;;;;;-143.84;73.24;45098.56;5110527;28;20438;-76
2022/10/12 02:16:49;;;;;;;3.47;2.40;;;;;;;-143.84;73.22;45087.16;5110550;28;20439;-76
2022/10/12 02:19:22;;;;;;;2.57;1.70;;;;;;;-143.84;73.36;45130.94;5110556;28;20439;-76
2022/10/12 02:21:53;;;;;;;4.07;2.17;;;;;;;-143.84;73.35;45089.06;5110156;28;20456;-75
2022/10/12 02:24:22;;;;;;;1.80;1.70;;;;;;;-143.84;73.24;45108.09;5110517;28;20428;-76
2022/10/12 02:26:53;;;;;;;2.63;2.43;;;;;;;-143.84;72.78;45111.91;5110101;28;20505;-76
2022/10/12 02:29:24;;;;;;;2.07;1.77;;;;;;;-143.84;72.62;45123.34;5110423;28;20523;-76
2022/10/12 02:31:56;;;;;;;3.70;1.83;;;;;;;-143.84;72.48;45110.00;5110396;28;20433;-76
2022/10/12 02:34:32;;;;;;;7.20;2.40;;;;;;;-143.84;72.31;45102.38;5110073;28;20456;-76
2022/10/12 02:37:06;;;;;;;2.73;1.80;;;;;;;-143.84;71.99;45117.63;5109870;28;20535;-76
2022/10/12 02:39:41;;;;;;;3.20;2.17;;;;;;;-143.84;72.02;45102.38;5078683;28;20505;-75
2022/10/12 02:42:12;;;;;;;4.30;2.70;;;;;;;-143.84;72.11;45110.00;5105662;28;20878;-75
2022/10/12 02:44:42;;;;;;;6.20;2.00;;;;;;;-143.84;72.10;45121.44;5110108;28;20502;-74
2022/10/12 02:47:11;;;;;;;2.43;2.20;;;;;;;-143.84;71.92;45134.75;5109470;28;20482;-73
2022/10/12 02:49:42;;;;;;;4.20;2.30;;;;;;;-143.84;72.24;45117.63;5108843;28;20952;-73
2022/10/12 02:52:09;;;;;;;3.00;1.90;;;;;;;-143.84;72.51;45123.34;5110027;28;20440;-73
2022/10/12 02:54:37;;;;;;;3.33;2.10;;;;;;;-143.84;72.33;45115.72;5110453;28;20494;-73
2022/10/12 02:57:04;;;;;;;4.30;1.83;;;;;;;-143.84;72.53;45098.56;5109747;28;20822;-74
2022/10/12 02:59:31;;;;;;;5.37;1.90;;;;;;;-143.84;72.32;45102.38;5109780;28;20435;-74
2022/10/12 03:01:58;;;;;;;4.70;2.20;;;;;;;-143.84;72.59;45121.44;5109514;28;20486;-74
2022/10/12 03:04:25;;;;;;;1.60;1.50;;;;;;;-143.84;72.68;45111.91;5109404;28;21071;-74
2022/10/12 03:06:54;;;;;;;7.23;2.20;;;;;;;-143.84;72.68;45123.34;5109491;28;20482;-73
2022/10/12 03:09:21;;;;;;;8.20;1.80;;;;;;;-143.84;72.67;45110.00;5109420;28;20443;-74
2022/10/12 03:11:48;;;;;;;6.93;2.10;;;;;;;-143.84;72.71;45136.66;5109237;28;20512;-74
2022/10/12 03:14:16;;;;;;;16.13;1.90;;;;;;;-143.84;72.74;45132.84;5109219;28;20912;-73
2022/10/12 03:16:45;;;;;;;5.13;2.17;;;;;;;-143.84;72.42;45100.47;5108687;28;21245;-73
2022/10/12 03:19:12;;;;;;;4.20;1.57;;;;;;;-143.84;72.22;45094.78;5109017;28;20435;-74
2022/10/12 03:21:42;;;;;;;16.07;2.30;;;;;;;-143.84;72.02;45132.84;5088629;28;20435;-74
2022/10/12 03:24:11;;;;;;;3.30;1.80;;;;;;;-143.84;72.01;45108.09;5108327;28;20432;-74
2022/10/12 03:26:38;;;;;;;5.00;2.20;;;;;;;-143.84;71.69;45110.00;5109140;28;20489;-73
2022/10/12 03:29:05;;;;;;;9.23;1.70;;;;;;;-143.84;71.59;45111.91;5108989;28;20441;-74
2022/10/12 03:31:32;;;;;;;2.90;1.67;;;;;;;-143.84;71.37;45104.28;5109287;28;20925;-74
2022/10/12 03:34:00;;;;;;;5.67;1.87;;;;;;;-143.84;71.57;45111.91;5108941;28;20458;-74
2022/10/12 03:36:27;;;;;;;3.50;1.60;;;;;;;-143.84;71.59;45106.19;5109237;28;20485;-74
2022/10/12 03:38:54;;;;;;;5.67;2.23;;;;;;;-143.84;71.85;45123.34;5109187;28;20534;-74
2022/10/12 03:41:23;;;;;;;4.50;1.47;;;;;;;-143.84;71.34;45119.53;5108888;28;20495;-74
2022/10/12 03:43:50;;;;;;;2.40;1.67;;;;;;;-143.84;71.31;45110.00;5109474;28;20435;-74
2022/10/12 03:46:17;;;;;;;2.30;1.30;;;;;;;-143.84;71.11;45102.38;5108763;28;20545;-76
2022/10/12 03:48:44;;;;;;;5.03;1.97;;;;;;;-143.84;70.83;45100.47;5105460;28;20461;-74
2022/10/12 03:51:11;;;;;;;2.13;1.37;;;;;;;-143.84;70.59;45102.38;5110195;28;20432;-73
2022/10/12 03:53:39;;;;;;;2.30;1.70;;;;;;;-143.84;70.00;45110.00;5106400;28;20440;-75
2022/10/12 03:56:07;;;;;;;6.77;1.73;;;;;;;-143.84;70.45;45108.09;5102680;28;20453;-75
2022/10/12 03:58:36;;;;;;;8.90;1.77;;;;;;;-143.84;70.42;45108.09;5109756;28;20435;-75
2022/10/12 04:01:04;;;;;;;2.23;1.40;;;;;;;-143.84;70.15;45123.34;5109656;28;20561;-75
2022/10/12 04:03:34;;;;;;;1.77;1.57;;;;;;;-143.84;69.95;45098.56;5109235;28;20443;-74
2022/10/12 04:06:01;;;;;;;8.80;1.50;;;;;;;-143.84;70.00;45085.25;5109166;28;20480;-72
2022/10/12 04:08:29;;;;;;;2.33;1.57;;;;;;;-143.84;69.60;45073.81;5109339;28;20442;-73
2022/10/12 04:10:57;;;;;;;4.03;1.40;;;;;;;-143.84;69.66;45129.03;5108622;28;20430;-73
2022/10/12 04:13:27;;;;;;;6.97;1.93;;;;;;;-143.84;69.70;45113.81;5108823;28;20487;-74
2022/10/12 04:15:55;;;;;;;12.17;1.70;;;;;;;-143.84;69.26;45136.66;5109010;28;20496;-74
2022/10/12 04:18:23;;;;;;;3.27;1.80;;;;;;;-143.84;69.76;45104.28;5109448;28;20442;-74
2022/10/12 04:20:50;;;;;;;14.83;1.63;;;;;;;-143.84;69.84;45117.63;5091277;28;20442;-73
2022/10/12 04:23:17;;;;;;;10.03;2.17;;;;;;;-143.84;70.20;45111.91;5108875;28;20844;-72
2022/10/12 04:25:44;;;;;;;3.57;1.33;;;;;;;-143.84;70.16;45132.84;5108271;28;20442;-71
2022/10/12 04:28:12;;;;;;;2.23;1.37;;;;;;;-143.84;70.12;45102.38;5108840;28;20850;-73
2022/10/12 04:30:39;;;;;;;7.43;1.70;;;;;;;-143.84;69.68;45090.97;5108184;28;20439;-73
2022/10/12 04:33:07;;;;;;;12.70;2.23;;;;;;;-143.84;69.82;45113.81;5099527;28;20508;-72
2022/10/12 04:35:35;;;;;;;3.33;1.63;;;;;;;-143.84;69.60;45130.94;5096021;28;20447;-74
2022/10/12 04:38:02;;;;;;;3.00;1.50;;;;;;;-143.84;69.38;45083.34;5113273;28;20466;-74
2022/10/12 04:40:30;;;;;;;6.90;1.53;;;;;;;-143.84;69.71;45100.47;5113257;28;20446;-74
2022/10/12 04:42:57;;;;;;;9.10;1.60;;;;;;;-143.84;69.26;45121.44;5113421;28;20747;-75
2022/10/12 04:45:24;;;;;;;11.13;1.87;;;;;;;-143.84;69.50;45138.56;5113453;28;20432;-75
2022/10/12 04:47:51;;;;;;;11.30;2.20;;;;;;;-143.84;69.22;45113.81;5111443;28;20901;-74
2022/10/12 04:50:20;;;;;;;2.47;1.53;;;;;;;-143.84;69.57;45102.38;5113664;28;20899;-75
2022/10/12 04:52:47;;;;;;;8.17;1.80;;;;;;;-143.84;69.44;45096.66;5112111;28;20504;-75
2022/10/12 04:55:14;;;;;;;14.03;1.80;;;;;;;-143.84;69.08;45106.19;5112550;28;20499;-75
2022/10/12 04:57:41;;;;;;;6.43;1.97;;;;;;;-143.84;69.11;45115.72;5111386;28;20502;-74
2022/10/12 05:00:10;;;;;;;12.60;1.80;;;;;;;-143.84;68.87;45136.66;5112788;28;20444;-75
2022/10/12 05:02:37;;;;;;;7.83;1.70;;;;;;;-143.84;68.50;45121.44;5112569;28;20472;-75
2022/10/12 05:05:05;;;;;;;2.63;1.87;;;;;;;-143.84;68.29;45108.09;5110709;28;21056;-75
2022/10/12 05:07:33;;;;;;;10.07;2.57;;;;;;;-143.84;68.01;45134.75;5091258;28;20484;-75
2022/10/12 05:10:01;;;;;;;11.50;2.77;;;;;;;-143.84;67.96;45125.22;5109825;28;20505;-75
2022/10/12 05:12:28;;;;;;;13.70;3.13;;;;;;;-143.84;67.87;45094.78;5109889;28;20449;-74
2022/10/12 05:14:55;;;;;;;11.03;2.40;;;;;;;-143.84;67.77;45127.13;5109795;28;20439;-74
2022/10/12 05:17:22;;;;;;;2.80;1.90;;;;;;;-143.84;67.26;45113.81;5110000;28;21166;-75
2022/10/12 05:19:50;;;;;;;6.20;1.90;;;;;;;-143.84;67.33;45110.00;5111033;28;20452;-75
2022/10/12 05:22:17;;;;;;;18.83;1.90;;;;;;;-143.84;66.98;45125.22;5112436;28;20514;-75
2022/10/12 05:24:46;;;;;;;6.40;1.57;;;;;;;-143.84;66.15;45089.06;5112377;28;20449;-75
2022/10/12 05:27:13;;;;;;;3.80;1.57;;;;;;;-143.84;66.38;45115.72;5112443;28;21014;-75
2022/10/12 05:29:40;;;;;;;2.37;1.60;;;;;;;-143.84;66.44;45115.72;5112282;28;20443;-75
2022/10/12 05:32:08;;;;;;;6.10;1.73;;;;;;;-143.84;66.30;45106.19;5112304;28;20455;-75
2022/10/12 05:34:35;;;;;;;11.53;2.23;;;;;;;-143.84;65.87;45096.66;5112276;28;20527;-75
2022/10/12 05:37:02;;;;;;;8.30;1.90;;;;;;;-143.84;66.02;45100.47;5112431;28;20480;-75
2022/10/12 05:39:29;;;;;;;4.90;3.00;;;;;;;-143.84;65.24;45100.47;5112048;28;20500;-76
2022/10/12 05:41:58;;;;;;;5.47;2.63;;;;;;;-143.84;64.93;45096.66;5111570;28;20980;-75
2022/10/12 05:44:25;;;;;;;8.07;2.07;;;;;;;-143.84;64.16;45104.28;5111044;28;20441;-75
2022/10/12 05:46:52;;;;;;;10.37;1.80;;;;;;;-143.84;63.51;45110.00;5110373;28;20535;-75
2022/10/12 05:49:19;;;;;;;8.77;1.57;;;;;;;-143.84;62.22;45102.38;5110544;28;20565;-75
2022/10/12 05:51:46;;;;;;;7.10;1.57;;;;;;;-143.84;62.51;45104.28;5109176;28;20441;-75
2022/10/12 05:54:14;;;;;;;4.70;1.40;;;;;;;-143.84;61.54;45092.88;5106684;28;20443;-75
2022/10/12 05:56:41;;;;;;;8.73;2.20;;;;;;;-143.84;61.60;45121.44;5111795;28;20440;-75
2022/10/12 05:59:10;;;;;;;8.83;1.67;;;;;;;-143.84;61.37;45111.91;5111496;28;20848;-75
2022/10/12 11:48:14;;;;;;;3.20;1.30;;;;;;;-143.84;41.55;45024.31;5087222;28;21513;-76
2022/10/12 11:50:46;;;;;;;7.17;1.47;;;;;;;-143.84;41.81;45068.13;5073247;28;20449;-75
2022/10/12 11:53:22;;;;;;;4.90;2.03;;;;;;;-143.84;42.06;45064.31;5073392;28;20486;-75
2022/10/12 11:56:01;;;;;;;3.73;1.00;;;;;;;-143.84;43.14;45064.31;5073031;28;20444;-75
2022/10/12 11:58:30;;;;;;;2.27;1.37;;;;;;;-143.84;42.80;45060.50;5073513;28;20437;-75
2022/10/12 12:01:13;;;;;;;2.77;1.20;;;;;;;-143.84;42.61;45030.03;5072910;28;20441;-75
2022/10/12 12:04:07;;;;;;;4.10;1.23;;;;;;;-143.84;42.72;45043.34;5073093;28;20448;-75
2022/10/12 12:06:55;;;;;;;3.73;0.90;;;;;;;-143.84;42.97;45062.41;5073324;28;20441;-75
2022/10/12 12:09:32;;;;;;;16.60;1.00;;;;;;;-143.84;43.31;45056.69;5073077;28;20445;-75
2022/10/12 12:12:11;;;;;;;1.30;1.10;;;;;;;-143.84;43.02;45068.13;5073137;28;20466;-75
2022/10/12 12:14:47;;;;;;;4.70;1.20;;;;;;;-143.84;42.75;45035.75;5072709;28;20441;-75
2022/10/12 12:17:23;;;;;;;1.53;0.90;;;;;;;-143.84;42.96;45045.25;5072563;28;20448;-74
2022/10/12 12:19:51;;;;;;;1.00;0.70;;;;;;;-143.84;43.10;45052.88;5072478;28;20926;-74
2022/10/12 12:22:48;;;;;;;4.93;1.47;;;;;;;-143.84;42.30;45047.16;5072333;28;20437;-74
2022/10/12 12:25:23;;;;;;;3.27;1.20;;;;;;;-143.84;42.67;45028.13;5071885;28;20516;-74
2022/10/12 12:27:53;;;;;;;3.13;0.80;;;;;;;-143.84;43.10;45043.34;5072108;28;20492;-74
2022/10/12 12:30:36;;;;;;;3.97;1.40;;;;;;;-143.84;43.24;45037.66;5072385;28;20923;-74
2022/10/12 12:33:06;;;;;;;3.60;1.07;;;;;;;-143.84;43.73;45050.97;5072306;28;21166;-74
2022/10/12 12:35:38;;;;;;;3.90;1.00;;;;;;;-143.84;43.81;45037.66;5072273;28;20437;-74
2022/10/12 12:38:22;;;;;;;2.97;0.80;;;;;;;-143.84;43.58;45066.22;5072250;28;20444;-74
2022/10/12 12:41:11;;;;;;;2.27;0.90;;;;;;;-143.84;43.73;45056.69;5082188;28;20455;-74
2022/10/12 12:44:04;;;;;;;8.00;1.17;;;;;;;-143.84;44.41;45052.88;5092359;28;20436;-74
2022/10/12 12:47:11;;;;;;;4.53;1.40;;;;;;;-143.84;44.91;45077.63;5092070;28;20515;-76
2022/10/12 12:49:44;;;;;;;3.00;0.80;;;;;;;-143.84;44.16;45056.69;5091609;28;20889;-76
2022/10/12 12:52:17;;;;;;;1.30;1.20;;;;;;;-143.84;44.28;45062.41;5091295;28;20509;-76
2022/10/12 12:55:12;;;;;;;2.10;1.47;;;;;;;-143.84;44.64;45045.25;5091556;28;20428;-76
2022/10/12 12:57:53;;;;;;;1.40;1.07;;;;;;;-143.84;45.10;45056.69;5084948;28;20564;-76
2022/10/12 13:00:22;;;;;;;2.07;1.57;;;;;;;-143.84;45.64;45031.94;5091145;28;20444;-76
2022/10/12 13:03:28;;;;;;;2.50;1.00;;;;;;;-143.84;45.58;45045.25;5091557;28;20433;-74
2022/10/12 13:06:39;;;;;;;6.00;0.90;;;;;;;-143.84;44.72;45041.44;5091350;28;20455;-75
2022/10/12 13:09:28;;;;;;;3.23;0.93;;;;;;;-143.84;45.10;45049.06;5091526;28;20459;-74
2022/10/12 13:12:28;;;;;;;2.40;1.10;;;;;;;-143.84;44.75;45058.59;5091367;28;20452;-74
2022/10/12 13:15:17;;;;;;;3.47;1.10;;;;;;;-143.84;46.07;45047.16;5090921;28;20440;-73
2022/10/12 13:18:14;;;;;;;3.33;1.30;;;;;;;-143.84;46.63;45045.25;5091093;28;20452;-74
2022/10/12 13:20:44;;;;;;;10.03;1.33;;;;;;;-143.84;47.35;45045.25;5072044;28;20513;-74
2022/10/12 13:23:17;;;;;;;2.50;1.37;;;;;;;-143.84;48.29;45033.84;5090944;28;20494;-74
2022/10/12 13:25:48;;;;;;;2.70;1.03;;;;;;;-143.84;48.80;45033.84;5090981;28;20436;-74
2022/10/12 13:28:20;;;;;;;3.43;0.80;;;;;;;-143.84;48.11;45054.78;5090931;28;20897;-74
2022/10/12 13:30:54;;;;;;;6.13;1.40;;;;;;;-143.84;48.37;45070.00;5090841;28;20444;-73
2022/10/12 13:33:27;;;;;;;3.60;1.27;;;;;;;-143.84;48.88;45064.31;5090705;28;21203;-74
2022/10/12 13:35:58;;;;;;;2.10;1.03;;;;;;;-143.84;49.68;45050.97;5090868;28;20444;-74
2022/10/12 13:38:28;;;;;;;14.93;1.20;;;;;;;-143.84;49.70;45071.91;5090681;28;20535;-74
2022/10/12 13:41:01;;;;;;;1.63;1.03;;;;;;;-143.84;50.03;45047.16;5090942;28;20432;-73
2022/10/12 13:43:42;;;;;;;2.30;1.07;;;;;;;-143.84;50.25;45047.16;5090712;28;20468;-74
2022/10/12 13:46:13;;;;;;;7.50;1.90;;;;;;;-143.84;50.19;45077.63;5090780;28;20493;-74
2022/10/12 13:48:48;;;;;;;3.10;1.00;;;;;;;-143.84;49.81;45062.41;5100216;27;20830;-74
2022/10/12 13:51:24;;;;;;;11.80;0.90;;;;;;;-143.84;49.45;45083.34;5131545;27;20438;-73
2022/10/12 13:53:51;;;;;;;5.23;1.40;;;;;;;-143.84;49.91;45073.81;5131418;27;20445;-74
2022/10/12 13:56:20;;;;;;;9.10;1.63;;;;;;;-143.84;50.45;45075.72;5131230;27;20495;-74
2022/10/12 13:58:47;;;;;;;3.03;1.00;;;;;;;-143.84;48.74;45062.41;5131145;27;20505;-73
2022/10/12 14:01:16;;;;;;;4.83;0.90;;;;;;;-143.84;49.96;45077.63;5131363;27;20442;-74
2022/10/12 14:03:45;;;;;;;2.23;1.40;;;;;;;-143.84;48.79;45047.16;5131189;27;20434;-73
2022/10/12 14:06:32;;;;;;;9.50;1.03;;;;;;;-143.84;49.99;45047.16;5131157;27;20438;-74
2022/10/12 14:09:07;;;;;;;4.90;1.23;;;;;;;-143.84;50.34;45068.13;5131202;27;20481;-74
2022/10/12 14:11:35;;;;;;;4.93;1.40;;;;;;;-143.84;50.94;45043.34;5131239;27;20434;-74
2022/10/12 14:14:04;;;;;;;3.97;1.10;;;;;;;-143.84;50.90;45056.69;5131002;27;20434;-74
2022/10/12 14:16:32;;;;;;;4.57;1.03;;;;;;;-143.84;50.77;45047.16;5130940;27;20442;-74
2022/10/12 14:19:21;;;;;;;1.30;1.00;;;;;;;-143.84;50.98;45066.22;5131020;27;20438;-73
2022/10/12 14:21:52;;;;;;;4.53;1.20;;;;;;;-143.84;51.18;45075.72;5130417;27;20457;-73
2022/10/12 14:24:21;;;;;;;2.20;0.90;;;;;;;-143.84;50.81;45068.13;5130220;27;20537;-73
2022/10/12 15:02:32;;;;;;;1.63;1.10;;;;;;;-143.84;45.86;45075.72;5102855;27;20481;-74
2022/10/12 15:05:12;;;;;;;6.80;1.73;;;;;;;-143.84;45.45;45071.91;5090890;28;20502;-74
2022/10/12 15:07:45;;;;;;;2.43;1.30;;;;;;;-143.84;45.72;45089.06;5098255;28;20487;-74
2022/10/12 15:10:17;;;;;;;2.30;1.43;;;;;;;-143.84;45.38;45090.97;5088787;28;20968;-74
2022/10/12 15:12:44;;;;;;;6.03;1.30;;;;;;;-143.84;46.04;45079.53;5091124;28;20460;-75
2022/10/12 15:15:25;;;;;;;7.63;2.13;;;;;;;-143.84;45.89;45054.78;5081638;28;21028;-75
2022/10/12 15:17:52;;;;;;;3.33;1.40;;;;;;;-143.84;46.64;45068.13;5081401;28;20456;-75
2022/10/12 15:20:21;;;;;;;6.40;1.30;;;;;;;-143.84;46.11;45070.00;5091365;28;20501;-74
2022/10/12 15:22:49;;;;;;;2.97;1.23;;;;;;;-143.84;46.55;45064.31;5091932;28;20456;-75
2022/10/12 15:25:20;;;;;;;11.63;1.70;;;;;;;-143.84;46.83;45083.34;5089109;28;20451;-76
2022/10/12 15:27:47;;;;;;;13.10;1.80;;;;;;;-143.84;47.26;45062.41;5089468;28;20537;-74
2022/10/12 15:30:15;;;;;;;5.00;1.60;;;;;;;-143.84;47.14;45066.22;5089599;28;20466;-74
2022/10/12 15:32:43;;;;;;;6.00;1.73;;;;;;;-143.84;47.21;45079.53;5089259;28;20444;-74
2022/10/12 15:35:19;;;;;;;9.93;1.77;;;;;;;-143.84;47.54;45060.50;5072745;28;20443;-74
2022/10/12 15:37:48;;;;;;;3.40;1.70;;;;;;;-143.84;47.44;45083.34;5088705;28;20507;-75
2022/10/12 15:40:18;;;;;;;9.30;1.80;;;;;;;-143.84;47.48;45089.06;5089327;28;20453;-75
2022/10/12 15:42:45;;;;;;;9.67;1.80;;;;;;;-143.84;47.05;45060.50;5089944;28;20489;-75
2022/10/12 15:45:20;;;;;;;3.80;1.50;;;;;;;-143.84;47.23;45083.34;5089419;28;20444;-75
2022/10/12 15:47:47;;;;;;;6.60;2.20;;;;;;;-143.84;48.11;45077.63;5084382;28;20447;-74
2022/10/12 15:50:16;;;;;;;15.90;2.30;;;;;;;-143.84;48.64;45079.53;5088534;28;20854;-74
2022/10/12 15:52:43;;;;;;;9.40;2.00;;;;;;;-143.84;48.97;45077.63;5095000;28;20447;-73
2022/10/12 15:55:20;;;;;;;2.37;2.17;;;;;;;-143.84;49.39;45066.22;5086909;28;20448;-73
2022/10/12 15:57:48;;;;;;;5.27;1.97;;;;;;;-143.84;48.79;45054.78;5090141;28;20530;-75
2022/10/12 16:00:17;;;;;;;3.53;2.10;;;;;;;-143.84;48.19;45050.97;5089028;28;20444;-75
2022/10/12 16:02:45;;;;;;;4.87;2.40;;;;;;;-143.84;48.94;45075.72;5090997;28;20431;-77
2022/10/12 16:05:19;;;;;;;5.00;2.53;;;;;;;-143.84;49.37;45066.22;5089937;28;20447;-76
2022/10/12 16:07:47;;;;;;;8.40;2.37;;;;;;;-143.84;49.11;45090.97;5085331;28;20450;-77
2022/10/12 16:10:15;;;;;;;4.10;2.03;;;;;;;-143.84;48.74;45094.78;5088166;28;20443;-73
2022/10/12 16:12:47;;;;;;;3.30;2.97;;;;;;;-143.84;49.58;45073.81;5088067;28;20436;-73
2022/10/12 16:15:16;;;;;;;9.33;3.17;;;;;;;-143.84;50.03;45087.16;5090318;28;20446;-73
2022/10/12 16:17:44;;;;;;;4.83;2.17;;;;;;;-143.84;50.23;45083.34;5093071;28;20499;-76
2022/10/12 16:20:12;;;;;;;10.63;2.10;;;;;;;-143.84;50.13;45090.97;5097190;28;20862;-74
2022/10/12 16:22:40;;;;;;;4.37;2.50;;;;;;;-143.84;50.53;45075.72;5092571;28;20929;-73
2022/10/12 16:25:09;;;;;;;15.50;2.33;;;;;;;-143.84;50.36;45077.63;5088696;28;20453;-74
2022/10/12 16:27:38;;;;;;;6.70;1.80;;;;;;;-143.84;50.56;45071.91;5089990;28;20442;-74
2022/10/12 16:30:08;;;;;;;6.60;2.20;;;;;;;-143.84;51.06;45079.53;5093658;28;20860;-74
2022/10/12 16:32:35;;;;;;;11.37;2.20;;;;;;;-143.84;51.19;45071.91;5093263;28;20965;-73
2022/10/12 16:35:03;;;;;;;6.40;1.60;;;;;;;-143.84;51.37;45064.31;5094246;28;21033;-72
2022/10/12 16:37:30;;;;;;;11.13;2.00;;;;;;;-143.84;51.44;45083.34;5093262;28;20452;-73
2022/10/12 16:39:57;;;;;;;9.73;2.43;;;;;;;-143.84;51.77;45066.22;5098297;28;20449;-73
2022/10/12 16:42:24;;;;;;;6.70;2.17;;;;;;;-143.84;51.96;45060.50;5091694;28;20531;-76
2022/10/12 16:44:51;;;;;;;7.10;2.47;;;;;;;-143.84;51.73;45087.16;5092723;28;20526;-73
2022/10/12 16:47:20;;;;;;;8.23;1.70;;;;;;;-143.84;52.02;45094.78;5091765;28;20502;-73
2022/10/12 16:49:47;;;;;;;5.33;1.93;;;;;;;-143.84;52.21;45070.00;5089166;28;20486;-76
2022/10/12 16:52:15;;;;;;;2.47;1.70;;;;;;;-143.84;53.73;45049.06;5091193;28;20508;-74
2022/10/12 16:54:42;;;;;;;4.50;2.07;;;;;;;-143.84;58.53;45070.00;5092755;28;20953;-73
2022/10/12 16:57:09;;;;;;;4.40;2.70;;;;;;;-143.84;59.70;45081.44;5092814;28;20468;-73
2022/10/12 16:59:37;;;;;;;9.43;2.60;;;;;;;-143.84;60.16;45066.22;5092769;28;20494;-74
2022/10/12 17:02:04;;;;;;;3.53;2.70;;;;;;;-143.84;60.01;45094.78;5092525;28;20816;-74
2022/10/12 17:04:33;;;;;;;9.30;2.97;;;;;;;-143.84;56.75;45090.97;5109463;28;20479;-74
2022/10/12 17:07:00;;;;;;;1999.90;999.90;;;;;;;-143.84;55.60;45070.00;5111779;28;20462;-73
2022/10/12 17:09:27;;;;;;;1712.67;999.90;;;;;;;-143.84;58.33;45081.44;5112865;28;20524;-75
2022/10/12 17:11:55;;;;;;;1722.40;999.90;;;;;;;-143.84;58.85;45068.13;5111997;28;20435;-73
2022/10/12 17:14:22;;;;;;;1999.90;999.90;;;;;;;-143.84;59.52;45062.41;5112317;28;20435;-75
2022/10/12 17:16:50;;;;;;;1999.90;999.90;;;;;;;-143.84;59.36;45068.13;5112101;27;20545;-77
2022/10/12 17:19:20;;;;;;;1185.03;951.50;;;;;;;-143.84;56.04;45049.06;5112412;28;20534;-73
2022/10/12 17:21:48;;;;;;;1420.50;999.90;;;;;;;-143.84;53.52;45056.69;5111904;28;20462;-72
2022/10/12 17:24:18;;;;;;;184.30;91.97;;;;;;;-143.84;47.09;45068.13;5111544;28;20435;-74
2022/10/12 17:26:46;;;;;;;11.83;8.30;;;;;;;-143.84;45.36;45041.44;5112106;28;20458;-73
2022/10/12 17:29:17;;;;;;;9.30;3.00;;;;;;;-143.84;44.75;45075.72;5111407;28;21017;-72
2022/10/12 17:31:45;;;;;;;6.53;2.70;;;;;;;-143.84;44.47;45033.84;5111772;28;20434;-72
2022/10/12 17:34:18;;;;;;;12.43;2.27;;;;;;;-143.84;44.05;45060.50;5111421;28;20435;-72
2022/10/12 17:36:46;;;;;;;10.63;1.80;;;;;;;-143.84;44.39;45037.66;5110440;28;20492;-72
2022/10/12 17:39:15;;;;;;;3.97;1.97;;;;;;;-143.84;44.55;45045.25;5110456;28;20936;-73
2022/10/12 17:41:43;;;;;;;2.03;1.33;;;;;;;-143.84;44.58;45047.16;5110137;28;20443;-72
2022/10/12 17:44:11;;;;;;;7.00;1.90;;;;;;;-143.84;44.70;45035.75;5110295;28;20442;-72
2022/10/12 17:46:38;;;;;;;4.00;1.60;;;;;;;-143.84;45.02;45047.16;5111384;28;20443;-71
2022/10/12 17:49:06;;;;;;;4.33;1.90;;;;;;;-143.84;45.51;45073.81;5111514;28;20502;-71
2022/10/12 17:51:34;;;;;;;4.63;1.80;;;;;;;-143.84;45.64;45070.00;5111173;28;20435;-71
2022/10/12 17:54:01;;;;;;;10.80;1.83;;;;;;;-143.84;45.90;45066.22;5111390;28;20435;-71
2022/10/12 17:56:30;;;;;;;2.60;1.30;;;;;;;-143.84;46.14;45037.66;5111445;28;20443;-71